createdAt,value
2023-01-27T03:06:09.169Z,101.43
2023-01-27T03:11:13.501Z,91.28
2023-01-27T03:16:34.535Z,83.60
2023-01-27T03:21:39.445Z,86.00
2023-01-27T03:26:43.753Z,88.28
2023-01-27T03:31:50.140Z,90.00
2023-01-27T03:37:12.872Z,84.15
2023-01-27T03:42:34.454Z,88.60
2023-01-27T03:47:38.014Z,87.03
2023-01-27T03:53:02.994Z,87.85
2023-01-27T03:58:19.891Z,77.78
2023-01-27T04:03:42.510Z,70.75
2023-01-27T04:08:47.455Z,77.32
2023-01-27T04:13:51.255Z,79.22
2023-01-27T04:18:56.270Z,75.15
2023-01-27T04:24:01.383Z,65.95
2023-01-27T04:29:07.583Z,69.78
2023-01-27T04:34:12.197Z,68.65
2023-01-27T04:39:18.311Z,65.10
2023-01-27T04:44:21.882Z,63.92
2023-01-27T04:49:27.003Z,61.67
2023-01-27T04:54:32.295Z,63.38
2023-01-27T04:59:35.869Z,63.38
2023-01-27T05:04:39.675Z,58.70
2023-01-27T05:09:44.652Z,60.53
2023-01-27T05:14:48.297Z,65.88
2023-01-27T05:19:51.997Z,60.45
2023-01-27T05:24:56.919Z,58.45
2023-01-27T05:30:00.768Z,57.08
2023-01-27T05:35:04.573Z,52.15
2023-01-27T05:40:11.524Z,41.15
2023-01-27T05:45:15.427Z,53.38
2023-01-27T05:50:19.731Z,53.55
2023-01-27T05:55:24.656Z,42.60
2023-01-27T06:00:28.643Z,41.25
2023-01-27T06:05:32.261Z,42.45
2023-01-27T06:10:37.422Z,61.15
2023-01-27T06:15:42.687Z,67.57
2023-01-27T06:20:47.121Z,52.30
2023-01-27T06:25:52.207Z,57.45
2023-01-27T06:30:55.973Z,49.67
2023-01-27T06:36:02.679Z,53.33
2023-01-27T06:41:08.008Z,57.50
2023-01-27T06:46:12.314Z,58.67
2023-01-27T06:51:16.041Z,54.17
2023-01-27T06:56:21.020Z,59.15
2023-01-27T07:01:24.908Z,58.75
2023-01-27T07:06:28.670Z,59.00
2023-01-27T07:11:33.705Z,57.10
2023-01-27T07:16:37.561Z,87.32
2023-01-27T07:21:41.314Z,55.78
2023-01-27T07:26:47.557Z,50.20
2023-01-27T07:31:51.360Z,59.92
2023-01-27T07:36:54.949Z,57.42
2023-01-27T07:42:01.726Z,58.50
2023-01-27T07:47:05.679Z,64.38
2023-01-27T07:52:09.313Z,55.08
2023-01-27T07:57:14.201Z,56.50
2023-01-27T08:02:17.812Z,78.43
2023-01-27T08:07:21.918Z,58.40
2023-01-27T08:12:26.887Z,59.42
2023-01-27T08:17:30.720Z,61.03
2023-01-27T08:22:34.475Z,58.92
2023-01-27T08:27:39.458Z,76.07
2023-01-27T18:19:23.665Z,79.57
2023-01-27T18:24:29.254Z,43.60
2023-01-27T18:29:37.293Z,64.47
2023-01-27T18:34:49.246Z,56.13
2023-01-27T18:39:52.971Z,54.42
2023-01-27T18:44:57.506Z,48.08
2023-01-27T18:50:15.383Z,38.78
2023-01-27T18:55:21.329Z,44.10
2023-01-27T19:00:27.349Z,34.72
2023-01-27T19:05:33.945Z,37.92
2023-01-27T19:10:38.203Z,47.22
2023-01-27T19:15:48.426Z,30.50
2023-01-27T19:20:53.728Z,26.35
2023-01-27T19:25:59.397Z,32.83
2023-01-27T19:31:03.563Z,29.02
2023-01-27T19:36:21.016Z,31.75
2023-01-27T19:41:24.668Z,34.22
2023-01-27T19:46:28.448Z,64.00
2023-01-27T19:51:34.144Z,41.10
2023-01-27T19:56:38.021Z,35.95
2023-01-27T20:01:41.602Z,63.30
2023-01-27T20:06:46.745Z,412.25
2023-01-27T20:11:50.411Z,154.50
2023-01-27T20:16:53.940Z,209.32
2023-01-27T20:22:01.700Z,161.75
2023-01-27T20:27:05.721Z,396.90
2023-01-27T20:32:09.671Z,323.92
2023-01-27T20:37:15.931Z,65.93
2023-01-27T20:42:19.855Z,112.00
2023-01-27T20:47:23.454Z,55.08
2023-01-27T20:52:29.515Z,46.58
2023-01-27T20:57:34.675Z,49.70
2023-01-27T21:02:38.498Z,45.25
2023-01-27T21:07:43.753Z,51.58
2023-01-27T21:12:47.504Z,53.22
2023-01-27T21:17:51.494Z,46.67
2023-01-27T21:22:56.689Z,53.78
2023-01-27T21:28:00.633Z,53.08
2023-01-27T21:33:04.997Z,48.75
2023-01-27T21:38:10.996Z,46.42
2023-01-27T21:43:32.185Z,40.97
2023-01-27T21:48:35.761Z,42.35
2023-01-27T21:53:41.687Z,144.88
2023-01-27T21:58:45.272Z,97.55
2023-01-27T22:03:49.419Z,104.22
2023-01-27T22:08:54.398Z,305.27
2023-01-27T22:13:58.421Z,457.35
2023-01-27T22:19:02.157Z,469.27
2023-01-27T22:24:08.001Z,565.15
2023-01-27T22:29:15.888Z,143.95
2023-01-27T22:34:19.642Z,303.58
2023-01-27T22:39:26.665Z,182.38
2023-01-27T22:44:30.563Z,384.40
2023-01-27T22:49:34.694Z,519.53
2023-01-27T22:54:40.399Z,368.90
2023-01-27T22:59:46.649Z,716.28
2023-01-27T23:04:50.237Z,318.88
2023-01-27T23:09:55.168Z,313.88
2023-01-27T23:15:01.782Z,189.52
2023-01-27T23:20:07.083Z,85.82
2023-01-27T23:25:14.945Z,124.35
2023-01-27T23:30:22.511Z,431.65
2023-01-27T23:35:26.046Z,457.48
2023-01-27T23:40:31.075Z,496.92
2023-01-27T23:45:34.624Z,142.18
2023-01-27T23:50:38.235Z,181.70
2023-01-27T23:55:43.516Z,292.50
